sensor_id;sensor_type;location;lat;lon;timestamp;P1;durP1;ratioP1;P2;durP2;ratioP2
14474;SDS011;7323;50.848;4.334;2023-11-19T00:00:26;7.63;;;4.00;;
14474;SDS011;7323;50.848;4.334;2023-11-19T00:02:52;10.30;;;4.10;;
14474;SDS011;7323;50.848;4.334;2023-11-19T00:05:18;6.47;;;4.10;;
14474;SDS011;7323;50.848;4.334;2023-11-19T00:07:44;7.83;;;4.03;;
14474;SDS011;7323;50.848;4.334;2023-11-19T00:10:11;8.33;;;4.00;;
14474;SDS011;7323;50.848;4.334;2023-11-19T00:12:41;8.57;;;3.90;;
14474;SDS011;7323;50.848;4.334;2023-11-19T00:15:09;7.37;;;3.50;;
14474;SDS011;7323;50.848;4.334;2023-11-19T00:17:39;9.80;;;4.37;;
14474;SDS011;7323;50.848;4.334;2023-11-19T00:20:11;8.63;;;3.57;;
14474;SDS011;7323;50.848;4.334;2023-11-19T00:22:42;10.17;;;3.83;;
14474;SDS011;7323;50.848;4.334;2023-11-19T00:25:09;10.03;;;3.63;;
14474;SDS011;7323;50.848;4.334;2023-11-19T00:27:43;10.77;;;3.47;;
14474;SDS011;7323;50.848;4.334;2023-11-19T00:30:11;12.10;;;4.03;;
14474;SDS011;7323;50.848;4.334;2023-11-19T00:32:40;8.03;;;3.83;;
14474;SDS011;7323;50.848;4.334;2023-11-19T00:35:06;7.30;;;2.87;;
14474;SDS011;7323;50.848;4.334;2023-11-19T00:37:32;7.53;;;3.20;;
14474;SDS011;7323;50.848;4.334;2023-11-19T00:39:59;10.67;;;3.70;;
14474;SDS011;7323;50.848;4.334;2023-11-19T00:42:24;9.47;;;3.33;;
14474;SDS011;7323;50.848;4.334;2023-11-19T00:44:51;8.00;;;2.80;;
14474;SDS011;7323;50.848;4.334;2023-11-19T00:47:17;9.73;;;3.13;;
14474;SDS011;7323;50.848;4.334;2023-11-19T00:49:46;9.67;;;2.97;;
14474;SDS011;7323;50.848;4.334;2023-11-19T00:52:15;10.60;;;3.10;;
14474;SDS011;7323;50.848;4.334;2023-11-19T00:54:43;10.37;;;3.50;;
14474;SDS011;7323;50.848;4.334;2023-11-19T00:57:09;13.17;;;4.53;;
14474;SDS011;7323;50.848;4.334;2023-11-19T00:59:40;13.57;;;3.70;;
14474;SDS011;7323;50.848;4.334;2023-11-19T01:02:12;9.80;;;3.27;;
14474;SDS011;7323;50.848;4.334;2023-11-19T01:04:39;13.27;;;3.30;;
14474;SDS011;7323;50.848;4.334;2023-11-19T01:07:05;10.40;;;3.47;;
14474;SDS011;7323;50.848;4.334;2023-11-19T01:09:38;16.17;;;3.67;;
14474;SDS011;7323;50.848;4.334;2023-11-19T01:12:11;11.63;;;3.23;;
14474;SDS011;7323;50.848;4.334;2023-11-19T01:14:41;11.03;;;3.27;;
14474;SDS011;7323;50.848;4.334;2023-11-19T01:17:09;12.87;;;3.53;;
14474;SDS011;7323;50.848;4.334;2023-11-19T01:19:34;14.40;;;3.23;;
14474;SDS011;7323;50.848;4.334;2023-11-19T01:22:00;11.10;;;3.23;;
14474;SDS011;7323;50.848;4.334;2023-11-19T01:24:47;12.50;;;3.60;;
14474;SDS011;7323;50.848;4.334;2023-11-19T01:27:14;10.37;;;3.27;;
14474;SDS011;7323;50.848;4.334;2023-11-19T01:29:40;15.20;;;3.83;;
14474;SDS011;7323;50.848;4.334;2023-11-19T01:32:09;11.23;;;3.60;;
14474;SDS011;7323;50.848;4.334;2023-11-19T01:34:35;14.90;;;3.23;;
14474;SDS011;7323;50.848;4.334;2023-11-19T01:37:01;13.63;;;3.47;;
14474;SDS011;7323;50.848;4.334;2023-11-19T01:39:26;11.23;;;3.70;;
14474;SDS011;7323;50.848;4.334;2023-11-19T01:41:53;11.50;;;3.43;;
14474;SDS011;7323;50.848;4.334;2023-11-19T01:44:21;10.73;;;3.23;;
14474;SDS011;7323;50.848;4.334;2023-11-19T01:49:17;11.97;;;3.43;;
14474;SDS011;7323;50.848;4.334;2023-11-19T01:51:46;13.57;;;3.83;;
14474;SDS011;7323;50.848;4.334;2023-11-19T01:54:13;12.50;;;4.33;;
14474;SDS011;7323;50.848;4.334;2023-11-19T01:56:40;13.23;;;3.53;;
14474;SDS011;7323;50.848;4.334;2023-11-19T01:59:09;12.97;;;3.83;;
14474;SDS011;7323;50.848;4.334;2023-11-19T02:01:38;15.53;;;4.00;;
14474;SDS011;7323;50.848;4.334;2023-11-19T02:04:08;12.63;;;4.00;;
14474;SDS011;7323;50.848;4.334;2023-11-19T02:06:41;18.30;;;4.37;;
14474;SDS011;7323;50.848;4.334;2023-11-19T02:09:10;13.57;;;3.13;;
14474;SDS011;7323;50.848;4.334;2023-11-19T02:11:55;15.50;;;4.10;;
14474;SDS011;7323;50.848;4.334;2023-11-19T02:14:25;21.40;;;4.30;;
14474;SDS011;7323;50.848;4.334;2023-11-19T02:16:54;16.27;;;4.17;;
14474;SDS011;7323;50.848;4.334;2023-11-19T02:19:22;13.77;;;3.60;;
14474;SDS011;7323;50.848;4.334;2023-11-19T02:21:50;15.67;;;4.67;;
14474;SDS011;7323;50.848;4.334;2023-11-19T02:24:17;15.20;;;4.30;;
14474;SDS011;7323;50.848;4.334;2023-11-19T02:26:57;18.00;;;5.13;;
14474;SDS011;7323;50.848;4.334;2023-11-19T02:29:49;18.93;;;4.57;;
14474;SDS011;7323;50.848;4.334;2023-11-19T02:32:15;14.23;;;4.20;;
14474;SDS011;7323;50.848;4.334;2023-11-19T02:34:41;20.50;;;5.60;;
14474;SDS011;7323;50.848;4.334;2023-11-19T02:37:07;15.83;;;4.13;;
14474;SDS011;7323;50.848;4.334;2023-11-19T02:39:33;18.03;;;4.33;;
14474;SDS011;7323;50.848;4.334;2023-11-19T02:41:59;15.20;;;4.10;;
14474;SDS011;7323;50.848;4.334;2023-11-19T02:44:26;10.33;;;3.90;;
14474;SDS011;7323;50.848;4.334;2023-11-19T02:46:54;14.67;;;3.80;;
14474;SDS011;7323;50.848;4.334;2023-11-19T02:49:21;16.27;;;3.87;;
14474;SDS011;7323;50.848;4.334;2023-11-19T02:51:47;16.63;;;5.13;;
14474;SDS011;7323;50.848;4.334;2023-11-19T02:54:13;16.13;;;3.90;;
14474;SDS011;7323;50.848;4.334;2023-11-19T02:56:42;19.03;;;4.57;;
14474;SDS011;7323;50.848;4.334;2023-11-19T02:59:08;19.37;;;4.70;;
14474;SDS011;7323;50.848;4.334;2023-11-19T03:01:37;14.30;;;4.47;;
14474;SDS011;7323;50.848;4.334;2023-11-19T03:04:04;12.73;;;3.50;;
14474;SDS011;7323;50.848;4.334;2023-11-19T03:06:30;13.67;;;3.80;;
14474;SDS011;7323;50.848;4.334;2023-11-19T03:08:55;15.87;;;3.60;;
14474;SDS011;7323;50.848;4.334;2023-11-19T03:11:23;18.63;;;4.33;;
14474;SDS011;7323;50.848;4.334;2023-11-19T03:13:49;15.20;;;3.90;;
14474;SDS011;7323;50.848;4.334;2023-11-19T03:16:15;16.57;;;3.97;;
14474;SDS011;7323;50.848;4.334;2023-11-19T03:18:42;15.20;;;4.13;;
14474;SDS011;7323;50.848;4.334;2023-11-19T03:21:08;16.93;;;4.17;;
14474;SDS011;7323;50.848;4.334;2023-11-19T03:23:34;16.90;;;3.87;;
14474;SDS011;7323;50.848;4.334;2023-11-19T03:26:00;18.23;;;3.87;;
14474;SDS011;7323;50.848;4.334;2023-11-19T03:28:29;13.07;;;3.80;;
14474;SDS011;7323;50.848;4.334;2023-11-19T03:30:55;17.53;;;4.53;;
14474;SDS011;7323;50.848;4.334;2023-11-19T03:33:21;15.63;;;3.43;;
14474;SDS011;7323;50.848;4.334;2023-11-19T03:35:48;16.63;;;4.00;;
14474;SDS011;7323;50.848;4.334;2023-11-19T03:38:14;19.00;;;4.97;;
14474;SDS011;7323;50.848;4.334;2023-11-19T03:40:39;17.20;;;4.50;;
14474;SDS011;7323;50.848;4.334;2023-11-19T03:43:05;18.13;;;3.77;;
14474;SDS011;7323;50.848;4.334;2023-11-19T03:45:31;14.93;;;4.13;;
14474;SDS011;7323;50.848;4.334;2023-11-19T03:47:58;14.93;;;4.20;;
14474;SDS011;7323;50.848;4.334;2023-11-19T03:50:23;14.17;;;3.63;;
14474;SDS011;7323;50.848;4.334;2023-11-19T03:52:50;15.57;;;3.77;;
14474;SDS011;7323;50.848;4.334;2023-11-19T03:55:16;17.47;;;4.27;;
14474;SDS011;7323;50.848;4.334;2023-11-19T03:57:41;18.83;;;4.03;;
14474;SDS011;7323;50.848;4.334;2023-11-19T04:00:07;17.67;;;3.90;;
14474;SDS011;7323;50.848;4.334;2023-11-19T04:02:38;17.67;;;4.03;;
14474;SDS011;7323;50.848;4.334;2023-11-19T04:05:05;20.53;;;4.80;;
14474;SDS011;7323;50.848;4.334;2023-11-19T04:07:31;16.17;;;4.50;;
14474;SDS011;7323;50.848;4.334;2023-11-19T04:09:58;20.80;;;4.63;;
14474;SDS011;7323;50.848;4.334;2023-11-19T04:12:25;15.33;;;4.10;;
14474;SDS011;7323;50.848;4.334;2023-11-19T04:14:53;16.60;;;4.57;;
14474;SDS011;7323;50.848;4.334;2023-11-19T04:17:20;17.63;;;4.70;;
14474;SDS011;7323;50.848;4.334;2023-11-19T04:19:46;20.10;;;4.70;;
14474;SDS011;7323;50.848;4.334;2023-11-19T04:22:12;18.77;;;4.33;;
14474;SDS011;7323;50.848;4.334;2023-11-19T04:24:38;20.33;;;4.40;;
14474;SDS011;7323;50.848;4.334;2023-11-19T04:27:05;18.60;;;4.77;;
14474;SDS011;7323;50.848;4.334;2023-11-19T04:29:31;19.57;;;4.80;;
14474;SDS011;7323;50.848;4.334;2023-11-19T04:32:00;16.93;;;4.53;;
14474;SDS011;7323;50.848;4.334;2023-11-19T04:34:26;23.40;;;4.80;;
14474;SDS011;7323;50.848;4.334;2023-11-19T04:36:52;21.60;;;5.27;;
14474;SDS011;7323;50.848;4.334;2023-11-19T04:39:18;23.57;;;5.27;;
14474;SDS011;7323;50.848;4.334;2023-11-19T04:41:48;19.23;;;4.77;;
14474;SDS011;7323;50.848;4.334;2023-11-19T04:44:23;19.73;;;5.37;;
14474;SDS011;7323;50.848;4.334;2023-11-19T04:46:55;25.40;;;5.33;;
14474;SDS011;7323;50.848;4.334;2023-11-19T04:49:20;19.37;;;5.07;;
14474;SDS011;7323;50.848;4.334;2023-11-19T04:51:48;23.37;;;4.97;;
14474;SDS011;7323;50.848;4.334;2023-11-19T04:54:40;20.57;;;5.73;;
14474;SDS011;7323;50.848;4.334;2023-11-19T05:00:07;16.27;;;4.50;;
14474;SDS011;7323;50.848;4.334;2023-11-19T05:02:37;18.70;;;5.00;;
14474;SDS011;7323;50.848;4.334;2023-11-19T05:05:06;24.47;;;5.97;;
14474;SDS011;7323;50.848;4.334;2023-11-19T05:07:54;20.80;;;5.37;;
14474;SDS011;7323;50.848;4.334;2023-11-19T05:10:23;24.47;;;5.70;;
14474;SDS011;7323;50.848;4.334;2023-11-19T05:12:59;21.47;;;5.50;;
14474;SDS011;7323;50.848;4.334;2023-11-19T05:15:47;18.90;;;4.83;;
14474;SDS011;7323;50.848;4.334;2023-11-19T05:18:15;21.37;;;6.57;;
14474;SDS011;7323;50.848;4.334;2023-11-19T05:20:48;19.53;;;5.37;;
14474;SDS011;7323;50.848;4.334;2023-11-19T05:23:15;21.13;;;5.23;;
14474;SDS011;7323;50.848;4.334;2023-11-19T05:25:45;19.43;;;5.20;;
14474;SDS011;7323;50.848;4.334;2023-11-19T05:28:12;27.10;;;5.90;;
14474;SDS011;7323;50.848;4.334;2023-11-19T05:30:39;24.57;;;5.43;;
14474;SDS011;7323;50.848;4.334;2023-11-19T05:33:05;28.10;;;5.70;;
14474;SDS011;7323;50.848;4.334;2023-11-19T05:35:33;27.37;;;5.23;;
14474;SDS011;7323;50.848;4.334;2023-11-19T05:37:59;23.60;;;5.50;;
14474;SDS011;7323;50.848;4.334;2023-11-19T05:40:27;23.27;;;5.50;;
14474;SDS011;7323;50.848;4.334;2023-11-19T05:42:53;29.23;;;5.93;;
14474;SDS011;7323;50.848;4.334;2023-11-19T05:45:22;26.53;;;5.90;;
14474;SDS011;7323;50.848;4.334;2023-11-19T05:47:50;23.80;;;5.30;;
14474;SDS011;7323;50.848;4.334;2023-11-19T05:50:17;24.63;;;5.57;;
14474;SDS011;7323;50.848;4.334;2023-11-19T05:52:43;24.90;;;6.53;;
14474;SDS011;7323;50.848;4.334;2023-11-19T05:55:09;26.47;;;6.90;;
14474;SDS011;7323;50.848;4.334;2023-11-19T05:57:36;34.90;;;6.60;;
14474;SDS011;7323;50.848;4.334;2023-11-19T06:00:02;25.17;;;5.60;;
14474;SDS011;7323;50.848;4.334;2023-11-19T06:02:34;25.87;;;6.20;;
14474;SDS011;7323;50.848;4.334;2023-11-19T06:05:02;24.10;;;6.00;;
14474;SDS011;7323;50.848;4.334;2023-11-19T06:07:30;22.47;;;5.87;;
14474;SDS011;7323;50.848;4.334;2023-11-19T06:09:59;29.93;;;5.70;;
14474;SDS011;7323;50.848;4.334;2023-11-19T06:12:24;24.30;;;6.10;;
14474;SDS011;7323;50.848;4.334;2023-11-19T06:14:52;25.83;;;5.50;;
14474;SDS011;7323;50.848;4.334;2023-11-19T06:17:18;21.53;;;5.23;;
14474;SDS011;7323;50.848;4.334;2023-11-19T06:19:45;27.27;;;6.13;;
14474;SDS011;7323;50.848;4.334;2023-11-19T06:22:11;24.60;;;6.30;;
14474;SDS011;7323;50.848;4.334;2023-11-19T06:24:41;24.07;;;6.00;;
14474;SDS011;7323;50.848;4.334;2023-11-19T06:27:07;24.17;;;6.47;;
14474;SDS011;7323;50.848;4.334;2023-11-19T06:29:34;24.17;;;6.17;;
14474;SDS011;7323;50.848;4.334;2023-11-19T06:31:59;23.10;;;5.83;;
14474;SDS011;7323;50.848;4.334;2023-11-19T06:34:25;25.67;;;5.73;;
14474;SDS011;7323;50.848;4.334;2023-11-19T06:36:51;21.93;;;5.60;;
14474;SDS011;7323;50.848;4.334;2023-11-19T06:39:17;32.97;;;6.23;;
14474;SDS011;7323;50.848;4.334;2023-11-19T06:41:46;26.70;;;6.10;;
14474;SDS011;7323;50.848;4.334;2023-11-19T06:44:12;27.97;;;6.03;;
14474;SDS011;7323;50.848;4.334;2023-11-19T06:46:38;21.23;;;5.80;;
14474;SDS011;7323;50.848;4.334;2023-11-19T06:49:06;24.83;;;4.70;;
14474;SDS011;7323;50.848;4.334;2023-11-19T06:51:34;21.67;;;5.63;;
14474;SDS011;7323;50.848;4.334;2023-11-19T06:54:02;24.70;;;6.10;;
14474;SDS011;7323;50.848;4.334;2023-11-19T06:56:29;21.03;;;5.03;;
14474;SDS011;7323;50.848;4.334;2023-11-19T06:58:55;27.97;;;6.70;;
14474;SDS011;7323;50.848;4.334;2023-11-19T07:01:20;21.13;;;5.07;;
14474;SDS011;7323;50.848;4.334;2023-11-19T07:03:46;25.93;;;5.77;;
14474;SDS011;7323;50.848;4.334;2023-11-19T07:06:12;22.87;;;5.83;;
14474;SDS011;7323;50.848;4.334;2023-11-19T07:08:39;30.63;;;6.93;;
14474;SDS011;7323;50.848;4.334;2023-11-19T07:11:08;25.73;;;6.13;;
14474;SDS011;7323;50.848;4.334;2023-11-19T07:13:35;22.10;;;5.70;;
14474;SDS011;7323;50.848;4.334;2023-11-19T07:16:03;27.57;;;6.13;;
14474;SDS011;7323;50.848;4.334;2023-11-19T07:18:29;25.80;;;5.90;;
14474;SDS011;7323;50.848;4.334;2023-11-19T07:20:59;19.37;;;5.43;;
14474;SDS011;7323;50.848;4.334;2023-11-19T07:23:25;23.57;;;5.97;;
14474;SDS011;7323;50.848;4.334;2023-11-19T07:25:51;27.80;;;5.63;;
14474;SDS011;7323;50.848;4.334;2023-11-19T07:28:18;21.67;;;5.80;;
14474;SDS011;7323;50.848;4.334;2023-11-19T07:30:44;23.97;;;5.70;;
14474;SDS011;7323;50.848;4.334;2023-11-19T07:33:11;28.53;;;6.00;;
14474;SDS011;7323;50.848;4.334;2023-11-19T07:35:39;21.90;;;5.57;;
14474;SDS011;7323;50.848;4.334;2023-11-19T07:38:09;24.77;;;6.07;;
14474;SDS011;7323;50.848;4.334;2023-11-19T07:40:35;18.90;;;5.27;;
14474;SDS011;7323;50.848;4.334;2023-11-19T07:43:01;23.00;;;5.30;;
14474;SDS011;7323;50.848;4.334;2023-11-19T07:45:28;24.77;;;5.60;;
14474;SDS011;7323;50.848;4.334;2023-11-19T07:48:16;26.83;;;6.70;;
14474;SDS011;7323;50.848;4.334;2023-11-19T07:50:49;30.17;;;6.77;;
14474;SDS011;7323;50.848;4.334;2023-11-19T07:53:19;18.27;;;5.70;;
14474;SDS011;7323;50.848;4.334;2023-11-19T07:55:47;27.20;;;5.83;;
14474;SDS011;7323;50.848;4.334;2023-11-19T07:58:13;21.80;;;6.37;;
14474;SDS011;7323;50.848;4.334;2023-11-19T08:00:38;23.17;;;6.33;;
14474;SDS011;7323;50.848;4.334;2023-11-19T08:03:05;21.47;;;5.53;;
14474;SDS011;7323;50.848;4.334;2023-11-19T08:05:31;22.13;;;5.93;;
14474;SDS011;7323;50.848;4.334;2023-11-19T08:07:58;23.83;;;5.93;;
14474;SDS011;7323;50.848;4.334;2023-11-19T08:10:24;20.87;;;5.47;;
14474;SDS011;7323;50.848;4.334;2023-11-19T08:12:54;26.27;;;6.70;;
14474;SDS011;7323;50.848;4.334;2023-11-19T08:15:23;21.33;;;5.13;;
14474;SDS011;7323;50.848;4.334;2023-11-19T08:17:52;25.63;;;4.97;;
14474;SDS011;7323;50.848;4.334;2023-11-19T08:20:21;21.53;;;5.73;;
14474;SDS011;7323;50.848;4.334;2023-11-19T08:22:57;26.30;;;6.23;;
14474;SDS011;7323;50.848;4.334;2023-11-19T08:25:23;24.70;;;5.37;;
14474;SDS011;7323;50.848;4.334;2023-11-19T08:28:02;22.53;;;4.60;;
14474;SDS011;7323;50.848;4.334;2023-11-19T08:30:53;24.03;;;5.63;;
14474;SDS011;7323;50.848;4.334;2023-11-19T08:33:37;24.23;;;5.73;;
14474;SDS011;7323;50.848;4.334;2023-11-19T08:36:03;24.23;;;5.40;;
14474;SDS011;7323;50.848;4.334;2023-11-19T08:38:44;22.43;;;5.33;;
14474;SDS011;7323;50.848;4.334;2023-11-19T08:41:36;20.07;;;4.77;;
14474;SDS011;7323;50.848;4.334;2023-11-19T08:44:04;20.30;;;5.20;;
14474;SDS011;7323;50.848;4.334;2023-11-19T08:46:31;20.70;;;5.40;;
14474;SDS011;7323;50.848;4.334;2023-11-19T08:48:56;23.23;;;5.87;;
14474;SDS011;7323;50.848;4.334;2023-11-19T08:51:24;20.70;;;5.83;;
14474;SDS011;7323;50.848;4.334;2023-11-19T08:53:51;19.27;;;5.30;;
14474;SDS011;7323;50.848;4.334;2023-11-19T08:56:17;21.03;;;5.17;;
14474;SDS011;7323;50.848;4.334;2023-11-19T08:58:43;20.10;;;4.40;;
14474;SDS011;7323;50.848;4.334;2023-11-19T09:01:09;20.57;;;5.47;;
14474;SDS011;7323;50.848;4.334;2023-11-19T09:03:36;21.27;;;5.70;;
14474;SDS011;7323;50.848;4.334;2023-11-19T09:06:02;22.20;;;5.30;;
14474;SDS011;7323;50.848;4.334;2023-11-19T09:08:28;21.00;;;5.47;;
14474;SDS011;7323;50.848;4.334;2023-11-19T09:10:55;23.83;;;5.53;;
14474;SDS011;7323;50.848;4.334;2023-11-19T09:13:21;21.77;;;4.63;;
14474;SDS011;7323;50.848;4.334;2023-11-19T09:15:53;16.80;;;4.80;;
14474;SDS011;7323;50.848;4.334;2023-11-19T09:18:42;18.13;;;4.97;;
14474;SDS011;7323;50.848;4.334;2023-11-19T09:21:08;21.90;;;4.93;;
14474;SDS011;7323;50.848;4.334;2023-11-19T09:23:36;18.83;;;4.83;;
14474;SDS011;7323;50.848;4.334;2023-11-19T09:26:19;18.70;;;4.53;;
14474;SDS011;7323;50.848;4.334;2023-11-19T09:28:44;17.80;;;4.57;;
14474;SDS011;7323;50.848;4.334;2023-11-19T09:31:17;15.70;;;4.50;;
14474;SDS011;7323;50.848;4.334;2023-11-19T09:33:43;19.43;;;4.50;;
14474;SDS011;7323;50.848;4.334;2023-11-19T09:36:13;16.83;;;4.93;;
14474;SDS011;7323;50.848;4.334;2023-11-19T09:38:40;21.43;;;4.73;;
14474;SDS011;7323;50.848;4.334;2023-11-19T09:41:06;19.53;;;4.27;;
14474;SDS011;7323;50.848;4.334;2023-11-19T09:43:35;20.47;;;4.67;;
14474;SDS011;7323;50.848;4.334;2023-11-19T09:46:07;21.33;;;4.60;;
14474;SDS011;7323;50.848;4.334;2023-11-19T09:48:37;14.30;;;4.53;;
14474;SDS011;7323;50.848;4.334;2023-11-19T09:51:07;17.43;;;3.87;;
14474;SDS011;7323;50.848;4.334;2023-11-19T09:53:36;19.83;;;5.07;;
14474;SDS011;7323;50.848;4.334;2023-11-19T09:56:03;18.93;;;4.97;;
14474;SDS011;7323;50.848;4.334;2023-11-19T09:58:31;22.17;;;5.60;;
14474;SDS011;7323;50.848;4.334;2023-11-19T10:00:58;21.40;;;5.00;;
14474;SDS011;7323;50.848;4.334;2023-11-19T10:03:35;17.00;;;4.50;;
14474;SDS011;7323;50.848;4.334;2023-11-19T10:06:08;22.03;;;5.50;;
14474;SDS011;7323;50.848;4.334;2023-11-19T10:08:38;21.97;;;4.97;;
14474;SDS011;7323;50.848;4.334;2023-11-19T10:11:10;19.07;;;5.30;;
14474;SDS011;7323;50.848;4.334;2023-11-19T10:13:45;20.27;;;5.40;;
14474;SDS011;7323;50.848;4.334;2023-11-19T10:16:13;22.80;;;5.07;;
14474;SDS011;7323;50.848;4.334;2023-11-19T10:18:49;21.23;;;4.97;;
14474;SDS011;7323;50.848;4.334;2023-11-19T10:21:21;18.83;;;4.63;;
14474;SDS011;7323;50.848;4.334;2023-11-19T10:23:47;18.03;;;5.00;;
14474;SDS011;7323;50.848;4.334;2023-11-19T10:26:42;21.00;;;4.53;;
14474;SDS011;7323;50.848;4.334;2023-11-19T10:29:08;18.57;;;4.60;;
14474;SDS011;7323;50.848;4.334;2023-11-19T10:31:39;16.17;;;4.87;;
14474;SDS011;7323;50.848;4.334;2023-11-19T10:34:09;17.27;;;4.77;;
14474;SDS011;7323;50.848;4.334;2023-11-19T10:36:50;19.43;;;4.70;;
14474;SDS011;7323;50.848;4.334;2023-11-19T10:39:15;18.23;;;4.80;;
14474;SDS011;7323;50.848;4.334;2023-11-19T10:41:41;18.37;;;4.63;;
14474;SDS011;7323;50.848;4.334;2023-11-19T10:44:08;18.00;;;4.33;;
14474;SDS011;7323;50.848;4.334;2023-11-19T10:46:41;21.33;;;4.73;;
14474;SDS011;7323;50.848;4.334;2023-11-19T10:49:09;14.30;;;3.90;;
14474;SDS011;7323;50.848;4.334;2023-11-19T10:51:35;14.23;;;4.40;;
14474;SDS011;7323;50.848;4.334;2023-11-19T10:54:11;14.83;;;4.43;;
14474;SDS011;7323;50.848;4.334;2023-11-19T10:56:40;16.83;;;4.00;;
14474;SDS011;7323;50.848;4.334;2023-11-19T10:59:10;13.23;;;3.83;;
14474;SDS011;7323;50.848;4.334;2023-11-19T11:01:39;14.30;;;3.83;;
14474;SDS011;7323;50.848;4.334;2023-11-19T11:04:12;16.60;;;4.50;;
14474;SDS011;7323;50.848;4.334;2023-11-19T11:06:40;15.83;;;4.37;;
14474;SDS011;7323;50.848;4.334;2023-11-19T11:09:06;18.97;;;4.73;;
14474;SDS011;7323;50.848;4.334;2023-11-19T11:11:37;20.97;;;5.13;;
14474;SDS011;7323;50.848;4.334;2023-11-19T11:14:11;20.03;;;5.20;;
14474;SDS011;7323;50.848;4.334;2023-11-19T11:16:44;23.20;;;5.30;;
14474;SDS011;7323;50.848;4.334;2023-11-19T11:19:13;16.03;;;4.17;;
14474;SDS011;7323;50.848;4.334;2023-11-19T11:21:42;20.20;;;4.23;;
14474;SDS011;7323;50.848;4.334;2023-11-19T11:33:30;19.03;;;5.63;;
14474;SDS011;7323;50.848;4.334;2023-11-19T11:38:45;19.10;;;4.73;;
14474;SDS011;7323;50.848;4.334;2023-11-19T11:41:20;25.80;;;5.23;;
14474;SDS011;7323;50.848;4.334;2023-11-19T11:43:50;23.17;;;5.70;;
14474;SDS011;7323;50.848;4.334;2023-11-19T11:49:02;16.33;;;4.40;;
14474;SDS011;7323;50.848;4.334;2023-11-19T11:54:25;22.13;;;5.37;;
14474;SDS011;7323;50.848;4.334;2023-11-19T11:57:08;16.90;;;4.07;;
14474;SDS011;7323;50.848;4.334;2023-11-19T11:59:37;16.87;;;4.60;;
14474;SDS011;7323;50.848;4.334;2023-11-19T12:02:16;16.83;;;4.90;;
14474;SDS011;7323;50.848;4.334;2023-11-19T12:04:47;14.97;;;3.60;;
14474;SDS011;7323;50.848;4.334;2023-11-19T12:07:15;15.03;;;3.87;;
14474;SDS011;7323;50.848;4.334;2023-11-19T12:09:46;16.63;;;4.03;;
14474;SDS011;7323;50.848;4.334;2023-11-19T12:17:43;16.47;;;3.73;;
14474;SDS011;7323;50.848;4.334;2023-11-19T12:20:18;16.20;;;4.03;;
14474;SDS011;7323;50.848;4.334;2023-11-19T12:22:57;11.97;;;3.83;;
14474;SDS011;7323;50.848;4.334;2023-11-19T12:25:37;10.53;;;3.13;;
14474;SDS011;7323;50.848;4.334;2023-11-19T12:28:05;13.60;;;4.63;;
14474;SDS011;7323;50.848;4.334;2023-11-19T12:30:36;13.33;;;4.20;;
14474;SDS011;7323;50.848;4.334;2023-11-19T12:33:07;16.23;;;4.07;;
14474;SDS011;7323;50.848;4.334;2023-11-19T12:35:38;18.87;;;4.73;;
14474;SDS011;7323;50.848;4.334;2023-11-19T12:38:04;17.40;;;4.27;;
14474;SDS011;7323;50.848;4.334;2023-11-19T12:40:31;17.90;;;4.50;;
14474;SDS011;7323;50.848;4.334;2023-11-19T12:42:57;16.83;;;4.50;;
14474;SDS011;7323;50.848;4.334;2023-11-19T12:45:24;18.20;;;5.33;;
14474;SDS011;7323;50.848;4.334;2023-11-19T12:47:50;18.17;;;5.00;;
14474;SDS011;7323;50.848;4.334;2023-11-19T12:50:29;18.67;;;5.37;;
14474;SDS011;7323;50.848;4.334;2023-11-19T12:52:57;24.50;;;5.00;;
14474;SDS011;7323;50.848;4.334;2023-11-19T12:55:24;14.33;;;4.40;;
14474;SDS011;7323;50.848;4.334;2023-11-19T12:57:57;18.77;;;4.50;;
14474;SDS011;7323;50.848;4.334;2023-11-19T13:00:31;19.73;;;4.77;;
14474;SDS011;7323;50.848;4.334;2023-11-19T13:02:57;16.60;;;4.80;;
14474;SDS011;7323;50.848;4.334;2023-11-19T13:05:33;16.73;;;5.10;;
14474;SDS011;7323;50.848;4.334;2023-11-19T13:10:53;23.87;;;4.93;;
14474;SDS011;7323;50.848;4.334;2023-11-19T13:13:20;19.57;;;4.97;;
14474;SDS011;7323;50.848;4.334;2023-11-19T13:15:46;21.30;;;5.03;;
14474;SDS011;7323;50.848;4.334;2023-11-19T13:18:12;18.27;;;4.20;;
14474;SDS011;7323;50.848;4.334;2023-11-19T13:20:42;19.00;;;4.37;;
14474;SDS011;7323;50.848;4.334;2023-11-19T13:23:10;15.67;;;3.70;;
14474;SDS011;7323;50.848;4.334;2023-11-19T13:25:40;20.23;;;4.63;;
14474;SDS011;7323;50.848;4.334;2023-11-19T13:28:07;19.77;;;4.60;;
14474;SDS011;7323;50.848;4.334;2023-11-19T13:30:34;16.73;;;4.77;;
14474;SDS011;7323;50.848;4.334;2023-11-19T13:33:07;19.30;;;4.90;;
14474;SDS011;7323;50.848;4.334;2023-11-19T13:35:36;16.60;;;4.70;;
14474;SDS011;7323;50.848;4.334;2023-11-19T13:38:03;21.50;;;4.57;;
14474;SDS011;7323;50.848;4.334;2023-11-19T13:40:29;17.23;;;4.93;;
14474;SDS011;7323;50.848;4.334;2023-11-19T13:42:54;18.17;;;5.17;;
14474;SDS011;7323;50.848;4.334;2023-11-19T13:45:20;18.23;;;4.03;;
14474;SDS011;7323;50.848;4.334;2023-11-19T13:48:01;19.63;;;5.20;;
14474;SDS011;7323;50.848;4.334;2023-11-19T13:51:38;16.70;;;4.70;;
14474;SDS011;7323;50.848;4.334;2023-11-19T13:54:04;15.97;;;4.87;;
14474;SDS011;7323;50.848;4.334;2023-11-19T13:56:30;18.97;;;4.93;;
14474;SDS011;7323;50.848;4.334;2023-11-19T13:58:57;21.73;;;5.03;;
14474;SDS011;7323;50.848;4.334;2023-11-19T14:01:26;21.73;;;5.50;;
14474;SDS011;7323;50.848;4.334;2023-11-19T14:04:12;20.90;;;5.10;;
14474;SDS011;7323;50.848;4.334;2023-11-19T14:06:40;23.43;;;4.97;;
14474;SDS011;7323;50.848;4.334;2023-11-19T14:09:25;21.10;;;5.07;;
14474;SDS011;7323;50.848;4.334;2023-11-19T14:11:52;20.33;;;4.97;;
14474;SDS011;7323;50.848;4.334;2023-11-19T14:14:18;21.07;;;5.43;;
14474;SDS011;7323;50.848;4.334;2023-11-19T14:16:44;22.03;;;5.10;;
14474;SDS011;7323;50.848;4.334;2023-11-19T14:19:10;18.10;;;5.20;;
14474;SDS011;7323;50.848;4.334;2023-11-19T14:21:36;18.90;;;5.13;;
14474;SDS011;7323;50.848;4.334;2023-11-19T14:24:02;17.80;;;5.13;;
14474;SDS011;7323;50.848;4.334;2023-11-19T14:26:28;20.93;;;5.93;;
14474;SDS011;7323;50.848;4.334;2023-11-19T14:28:54;18.37;;;4.57;;
14474;SDS011;7323;50.848;4.334;2023-11-19T14:31:27;21.03;;;5.10;;
14474;SDS011;7323;50.848;4.334;2023-11-19T14:33:58;20.33;;;5.23;;
14474;SDS011;7323;50.848;4.334;2023-11-19T14:36:28;25.30;;;5.33;;
14474;SDS011;7323;50.848;4.334;2023-11-19T14:38:54;18.97;;;5.37;;
14474;SDS011;7323;50.848;4.334;2023-11-19T14:41:20;24.73;;;6.07;;
14474;SDS011;7323;50.848;4.334;2023-11-19T14:43:49;19.80;;;4.80;;
14474;SDS011;7323;50.848;4.334;2023-11-19T14:46:37;23.80;;;6.67;;
14474;SDS011;7323;50.848;4.334;2023-11-19T14:49:04;20.37;;;5.03;;
14474;SDS011;7323;50.848;4.334;2023-11-19T14:51:41;22.20;;;5.33;;
14474;SDS011;7323;50.848;4.334;2023-11-19T14:54:25;22.37;;;5.53;;
14474;SDS011;7323;50.848;4.334;2023-11-19T14:57:01;23.53;;;5.00;;
14474;SDS011;7323;50.848;4.334;2023-11-19T14:59:29;17.73;;;4.60;;
14474;SDS011;7323;50.848;4.334;2023-11-19T15:01:56;17.77;;;4.50;;
14474;SDS011;7323;50.848;4.334;2023-11-19T15:04:25;19.00;;;5.53;;
14474;SDS011;7323;50.848;4.334;2023-11-19T15:07:14;22.83;;;6.03;;
14474;SDS011;7323;50.848;4.334;2023-11-19T15:09:40;22.13;;;5.60;;
14474;SDS011;7323;50.848;4.334;2023-11-19T15:12:06;17.37;;;5.00;;
14474;SDS011;7323;50.848;4.334;2023-11-19T15:14:32;15.70;;;4.17;;
14474;SDS011;7323;50.848;4.334;2023-11-19T15:16:59;23.10;;;5.70;;
14474;SDS011;7323;50.848;4.334;2023-11-19T15:19:29;23.57;;;4.90;;
14474;SDS011;7323;50.848;4.334;2023-11-19T15:21:57;21.67;;;4.63;;
14474;SDS011;7323;50.848;4.334;2023-11-19T15:27:13;17.13;;;4.47;;
14474;SDS011;7323;50.848;4.334;2023-11-19T15:29:46;15.23;;;4.27;;
14474;SDS011;7323;50.848;4.334;2023-11-19T15:32:11;20.03;;;5.40;;
14474;SDS011;7323;50.848;4.334;2023-11-19T15:34:37;17.17;;;4.47;;